Hosston, Louisiana
Current Conditions -  °F | °C
As of 1:53 AM on Friday 28 Nov 2014 (Local Time) from KDTN Reporting Station
Clear Clear  
Wind Chill: 33°   Ceiling: Unl
Heat Index: 39°   Visibility: 10mi
Dew Point: 31°   Wind: 8mph
Humidity: 73%   Direction: 130°SE
Pressure: 30.41"   Gusts: NA
Location:  32.89°N, 93.88°W
Report Text: KDTN 280753Z AUTO 13007KT 10SM CLR 04/M01 A3041 RMK AO2 SLP296 T00391006
Loading
Personal Weather Stations






























Interactive Weather Map New forecast layout! Learn more

10-Day Weather Forecast

Advertisements
Track Severe Weather on mobile